Time;durP1;ratioP1;P1;durP2;ratioP2;P2;SDS_P1;SDS_P2;PMS_P1;PMS_P2;Temp;Humidity;BMP_temperature;BMP_pressure;BME280_temperature;BME280_humidity;BME280_pressure;Samples;Min_cycle;Max_cycle;Signal;HPM_P1;HPM_P2
2023/10/24 00:00:21;;;;;;;15.43;9.32;;;;;;;;;;5010181;28;20064;-72
2023/10/24 00:02:47;;;;;;;14.48;8.38;;;;;;;;;;5009469;28;20037;-67
2023/10/24 00:05:13;;;;;;;13.43;8.65;;;;;;;;;;5010111;28;20041;-68
2023/10/24 00:07:39;;;;;;;13.70;8.52;;;;;;;;;;5009413;28;20034;-69
2023/10/24 00:10:05;;;;;;;13.27;9.38;;;;;;;;;;5009862;28;21831;-68
2023/10/24 00:12:32;;;;;;;15.90;9.70;;;;;;;;;;5009547;28;20483;-69
2023/10/24 00:14:58;;;;;;;13.20;8.80;;;;;;;;;;5010156;28;20061;-69
2023/10/24 00:17:24;;;;;;;14.32;9.30;;;;;;;;;;5009677;28;20087;-68
2023/10/24 00:19:50;;;;;;;13.18;8.82;;;;;;;;;;5009886;28;20041;-68
2023/10/24 00:22:16;;;;;;;17.33;8.95;;;;;;;;;;5008924;28;20029;-68
2023/10/24 00:24:43;;;;;;;12.23;8.40;;;;;;;;;;5010021;28;20034;-68
2023/10/24 00:27:09;;;;;;;16.23;9.65;;;;;;;;;;5009473;28;20029;-67
2023/10/24 00:29:35;;;;;;;16.38;8.82;;;;;;;;;;5009584;28;20029;-67
2023/10/24 00:32:01;;;;;;;13.07;9.23;;;;;;;;;;5009166;28;20034;-67
2023/10/24 00:34:27;;;;;;;12.02;8.70;;;;;;;;;;5008538;28;20057;-68
2023/10/24 00:36:53;;;;;;;12.45;8.50;;;;;;;;;;5008046;28;20037;-68
2023/10/24 00:39:19;;;;;;;15.95;8.98;;;;;;;;;;5009144;28;20072;-69
2023/10/24 00:41:45;;;;;;;14.35;9.25;;;;;;;;;;5008299;28;20057;-70
2023/10/24 00:44:12;;;;;;;15.38;9.57;;;;;;;;;;5009558;28;20045;-68
2023/10/24 00:46:42;;;;;;;12.95;8.70;;;;;;;;;;5009279;28;20029;-68
2023/10/24 00:49:09;;;;;;;16.27;9.07;;;;;;;;;;5009532;28;20037;-68
2023/10/24 00:51:35;;;;;;;12.85;8.68;;;;;;;;;;5008997;28;20029;-67
2023/10/24 00:54:02;;;;;;;16.92;9.10;;;;;;;;;;5007707;28;20500;-68
2023/10/24 00:56:30;;;;;;;13.43;9.02;;;;;;;;;;5009683;28;20041;-68
2023/10/24 00:58:56;;;;;;;14.02;9.45;;;;;;;;;;5009650;28;20136;-68
2023/10/24 01:01:23;;;;;;;14.23;8.85;;;;;;;;;;5009709;28;20036;-68
2023/10/24 01:03:49;;;;;;;14.63;9.68;;;;;;;;;;5008881;28;20021;-68
2023/10/24 01:06:18;;;;;;;16.27;9.80;;;;;;;;;;5010094;28;20072;-70
2023/10/24 01:08:44;;;;;;;17.02;10.65;;;;;;;;;;5009103;28;20044;-69
2023/10/24 01:11:11;;;;;;;17.20;10.00;;;;;;;;;;5009184;28;20137;-69
2023/10/24 01:13:37;;;;;;;14.98;9.52;;;;;;;;;;5009675;28;20038;-67
2023/10/24 01:16:03;;;;;;;15.20;10.07;;;;;;;;;;5008968;28;20029;-68
2023/10/24 01:18:30;;;;;;;16.98;10.10;;;;;;;;;;5007566;28;20101;-70
2023/10/24 01:20:56;;;;;;;17.73;11.00;;;;;;;;;;5007405;28;20476;-69
2023/10/24 01:23:22;;;;;;;16.52;9.88;;;;;;;;;;5009215;28;20476;-70
2023/10/24 01:25:49;;;;;;;17.70;10.50;;;;;;;;;;5009268;28;20040;-70
2023/10/24 01:28:15;;;;;;;17.42;11.10;;;;;;;;;;5007843;28;20053;-70
2023/10/24 01:30:41;;;;;;;19.17;10.50;;;;;;;;;;5024217;28;20042;-68
2023/10/24 01:33:07;;;;;;;18.83;9.63;;;;;;;;;;5013212;28;20050;-69
2023/10/24 01:35:33;;;;;;;17.08;10.90;;;;;;;;;;5013266;28;20037;-68
2023/10/24 01:37:59;;;;;;;19.38;11.80;;;;;;;;;;5012895;28;20943;-69
2023/10/24 01:40:25;;;;;;;17.23;11.57;;;;;;;;;;5012629;28;20037;-68
2023/10/24 01:42:51;;;;;;;17.48;11.27;;;;;;;;;;5012576;28;20021;-68
2023/10/24 01:45:17;;;;;;;20.67;11.40;;;;;;;;;;5012728;28;21603;-68
2023/10/24 01:47:44;;;;;;;18.38;11.80;;;;;;;;;;5011986;28;20049;-69
2023/10/24 01:50:10;;;;;;;17.90;11.75;;;;;;;;;;5013342;28;20769;-69
2023/10/24 01:52:36;;;;;;;20.08;11.93;;;;;;;;;;5013048;28;20108;-68
2023/10/24 01:55:02;;;;;;;18.98;11.65;;;;;;;;;;5012904;28;20034;-69
2023/10/24 01:57:28;;;;;;;17.85;11.43;;;;;;;;;;5012720;28;20103;-68
2023/10/24 01:59:54;;;;;;;15.73;11.10;;;;;;;;;;5012947;28;20030;-69
2023/10/24 02:02:20;;;;;;;18.17;11.35;;;;;;;;;;5012350;28;20075;-69
2023/10/24 02:04:46;;;;;;;19.40;11.93;;;;;;;;;;5013217;28;20046;-69
2023/10/24 02:07:12;;;;;;;20.17;11.45;;;;;;;;;;5012760;28;20037;-69
2023/10/24 02:09:38;;;;;;;18.88;12.13;;;;;;;;;;5028554;28;20603;-68
2023/10/24 02:12:05;;;;;;;18.10;11.05;;;;;;;;;;5012865;28;20982;-68
2023/10/24 02:14:31;;;;;;;18.45;11.15;;;;;;;;;;5011472;28;20030;-68
2023/10/24 02:16:57;;;;;;;17.20;10.75;;;;;;;;;;5012277;28;21239;-69
2023/10/24 02:19:24;;;;;;;17.40;10.68;;;;;;;;;;5011899;28;20025;-68
2023/10/24 02:21:50;;;;;;;17.50;10.80;;;;;;;;;;5011942;28;20046;-68
2023/10/24 02:24:16;;;;;;;15.80;10.75;;;;;;;;;;5010788;28;20088;-68
2023/10/24 02:26:42;;;;;;;17.58;10.13;;;;;;;;;;5010448;28;20030;-70
2023/10/24 02:29:08;;;;;;;18.83;11.00;;;;;;;;;;5010508;28;20029;-68
2023/10/24 02:31:34;;;;;;;14.80;9.93;;;;;;;;;;5011460;28;20048;-68
2023/10/24 02:34:00;;;;;;;14.40;10.30;;;;;;;;;;5011458;28;20030;-69
2023/10/24 02:36:27;;;;;;;15.85;10.65;;;;;;;;;;5011474;28;21883;-67
2023/10/24 02:38:53;;;;;;;14.93;10.07;;;;;;;;;;5011566;28;20083;-69
2023/10/24 02:41:19;;;;;;;13.75;9.70;;;;;;;;;;5011626;28;20044;-68
2023/10/24 02:43:45;;;;;;;13.55;9.93;;;;;;;;;;5011299;28;20048;-68
2023/10/24 02:46:11;;;;;;;15.02;9.98;;;;;;;;;;5012237;28;20048;-68
2023/10/24 02:48:37;;;;;;;16.33;9.38;;;;;;;;;;5011409;28;20112;-68
2023/10/24 02:51:03;;;;;;;19.45;9.70;;;;;;;;;;5012325;28;20046;-67
2023/10/24 02:53:29;;;;;;;13.93;9.32;;;;;;;;;;5011620;28;20029;-68
2023/10/24 02:56:01;;;;;;;15.75;10.13;;;;;;;;;;5011177;28;20488;-68
2023/10/24 02:58:27;;;;;;;15.80;9.82;;;;;;;;;;5011785;28;20168;-67
2023/10/24 03:00:53;;;;;;;14.32;9.70;;;;;;;;;;5011659;28;20076;-67
2023/10/24 03:03:19;;;;;;;15.63;9.23;;;;;;;;;;5011442;28;20037;-67
2023/10/24 03:05:45;;;;;;;14.27;9.25;;;;;;;;;;5011944;28;20037;-68
2023/10/24 03:08:11;;;;;;;17.95;9.30;;;;;;;;;;5011179;28;20029;-67
2023/10/24 03:10:41;;;;;;;13.25;8.68;;;;;;;;;;5009216;28;20037;-68
2023/10/24 03:13:07;;;;;;;15.65;9.38;;;;;;;;;;5011595;28;20053;-68
2023/10/24 03:15:35;;;;;;;13.45;9.13;;;;;;;;;;5011425;28;20049;-67
2023/10/24 03:18:01;;;;;;;15.68;9.73;;;;;;;;;;5011188;28;20037;-67
2023/10/24 03:20:28;;;;;;;14.90;9.73;;;;;;;;;;5011762;28;20025;-67
2023/10/24 03:22:57;;;;;;;19.15;9.65;;;;;;;;;;5011723;28;20052;-66
2023/10/24 03:25:26;;;;;;;16.20;9.95;;;;;;;;;;5007719;28;20823;-67
2023/10/24 03:27:53;;;;;;;12.43;8.48;;;;;;;;;;5010689;28;20037;-68
2023/10/24 03:30:19;;;;;;;12.70;8.20;;;;;;;;;;5011347;28;20033;-67
2023/10/24 03:32:45;;;;;;;14.38;8.80;;;;;;;;;;5010232;28;20030;-67
2023/10/24 03:35:11;;;;;;;17.58;10.88;;;;;;;;;;5010893;28;20111;-66
2023/10/24 03:37:37;;;;;;;13.45;8.75;;;;;;;;;;5010517;28;20503;-68
2023/10/24 03:40:04;;;;;;;17.98;9.18;;;;;;;;;;5010571;28;20628;-67
2023/10/24 03:42:30;;;;;;;12.55;8.77;;;;;;;;;;5011032;28;20040;-67
2023/10/24 03:44:56;;;;;;;14.68;9.27;;;;;;;;;;5010962;28;21428;-68
2023/10/24 03:47:22;;;;;;;15.57;9.90;;;;;;;;;;5010919;28;20033;-67
2023/10/24 03:49:48;;;;;;;14.77;8.93;;;;;;;;;;5010665;28;20136;-68
2023/10/24 03:52:15;;;;;;;13.77;10.30;;;;;;;;;;5010533;28;20174;-68
2023/10/24 03:54:41;;;;;;;15.18;10.60;;;;;;;;;;5009949;28;20676;-68
2023/10/24 03:57:07;;;;;;;15.57;10.63;;;;;;;;;;5009811;28;20073;-69
2023/10/24 03:59:33;;;;;;;16.70;10.43;;;;;;;;;;5010295;28;20432;-68
2023/10/24 04:01:59;;;;;;;12.45;9.38;;;;;;;;;;5008966;28;20440;-69
2023/10/24 04:04:25;;;;;;;15.43;9.77;;;;;;;;;;5010645;28;20580;-69
2023/10/24 04:06:51;;;;;;;14.15;9.40;;;;;;;;;;5008938;28;20152;-69
2023/10/24 04:09:17;;;;;;;13.02;9.40;;;;;;;;;;5010158;28;20038;-69
2023/10/24 04:11:43;;;;;;;13.52;8.73;;;;;;;;;;5009149;28;20392;-69
2023/10/24 04:14:09;;;;;;;14.57;9.60;;;;;;;;;;5010574;28;20463;-69
2023/10/24 04:16:35;;;;;;;16.23;10.48;;;;;;;;;;5008884;28;20094;-69
2023/10/24 04:19:02;;;;;;;17.98;9.20;;;;;;;;;;5007972;28;20045;-68
2023/10/24 04:21:28;;;;;;;15.55;9.13;;;;;;;;;;5008802;28;20629;-69
2023/10/24 04:23:54;;;;;;;15.25;9.05;;;;;;;;;;5009140;28;20055;-69
2023/10/24 04:26:20;;;;;;;13.98;9.25;;;;;;;;;;5008919;28;20032;-69
2023/10/24 04:28:48;;;;;;;11.30;8.50;;;;;;;;;;5009086;28;20129;-69
2023/10/24 04:31:14;;;;;;;12.50;9.90;;;;;;;;;;5009470;28;20034;-69
2023/10/24 04:33:40;;;;;;;11.52;8.27;;;;;;;;;;5009593;28;20763;-69
2023/10/24 04:36:10;;;;;;;13.07;9.45;;;;;;;;;;5009655;28;20044;-69
2023/10/24 04:38:36;;;;;;;13.13;8.77;;;;;;;;;;5009529;28;20021;-69
2023/10/24 04:41:02;;;;;;;14.95;9.30;;;;;;;;;;5009787;28;20734;-69
2023/10/24 04:43:29;;;;;;;12.07;8.70;;;;;;;;;;5009954;28;20491;-69
2023/10/24 04:45:55;;;;;;;12.32;8.93;;;;;;;;;;5010298;28;20064;-69
2023/10/24 04:48:21;;;;;;;13.65;9.02;;;;;;;;;;5010191;28;20041;-69
2023/10/24 04:50:47;;;;;;;14.38;9.45;;;;;;;;;;5009521;28;20675;-69
2023/10/24 04:53:13;;;;;;;15.30;10.35;;;;;;;;;;5009995;28;20042;-69
2023/10/24 04:55:39;;;;;;;12.95;9.43;;;;;;;;;;5009470;28;20049;-69
2023/10/24 04:58:06;;;;;;;13.15;9.48;;;;;;;;;;5009273;28;20144;-69
2023/10/24 05:00:32;;;;;;;14.18;9.27;;;;;;;;;;5008922;28;20121;-69
2023/10/24 05:02:59;;;;;;;14.70;10.02;;;;;;;;;;5009549;28;20026;-69
2023/10/24 05:05:27;;;;;;;14.93;9.60;;;;;;;;;;5007724;28;20598;-69
2023/10/24 05:07:53;;;;;;;15.60;10.43;;;;;;;;;;5009224;28;20483;-69
2023/10/24 05:10:20;;;;;;;13.20;9.82;;;;;;;;;;5009325;28;20662;-69
2023/10/24 05:12:46;;;;;;;14.38;10.52;;;;;;;;;;5009481;28;21219;-69
2023/10/24 05:15:12;;;;;;;12.57;10.07;;;;;;;;;;5009327;28;20526;-69
2023/10/24 05:17:38;;;;;;;14.02;11.05;;;;;;;;;;5009968;28;20386;-69
2023/10/24 05:20:07;;;;;;;15.05;10.93;;;;;;;;;;5009150;28;20022;-69
2023/10/24 05:22:33;;;;;;;13.98;10.20;;;;;;;;;;5009577;28;20041;-69
2023/10/24 05:24:59;;;;;;;14.82;11.15;;;;;;;;;;5009465;28;20037;-69
2023/10/24 05:27:28;;;;;;;30.33;12.10;;;;;;;;;;5009409;28;20069;-69
2023/10/24 05:29:54;;;;;;;16.45;12.25;;;;;;;;;;5008749;28;20025;-69
2023/10/24 05:32:21;;;;;;;15.80;11.93;;;;;;;;;;5009175;28;20901;-69
2023/10/24 05:34:47;;;;;;;18.85;12.55;;;;;;;;;;5009265;28;20068;-69
2023/10/24 05:37:13;;;;;;;14.77;11.32;;;;;;;;;;5009591;28;20046;-69
2023/10/24 05:39:39;;;;;;;15.57;11.10;;;;;;;;;;5008567;28;20041;-69
2023/10/24 05:42:05;;;;;;;14.65;11.57;;;;;;;;;;5008861;28;20028;-69
2023/10/24 05:44:31;;;;;;;14.23;10.20;;;;;;;;;;5009607;28;20048;-69
2023/10/24 05:46:57;;;;;;;15.95;12.55;;;;;;;;;;5009156;28;20037;-69
2023/10/24 05:49:23;;;;;;;14.82;12.05;;;;;;;;;;5008786;28;20148;-69
2023/10/24 05:51:50;;;;;;;13.90;11.27;;;;;;;;;;5009481;28;20029;-69
2023/10/24 05:54:16;;;;;;;15.35;12.07;;;;;;;;;;5008704;28;20120;-69
2023/10/24 05:56:42;;;;;;;18.70;12.05;;;;;;;;;;5007840;28;20061;-67
2023/10/24 05:59:08;;;;;;;14.43;11.10;;;;;;;;;;5009445;28;20152;-68
2023/10/24 06:01:34;;;;;;;13.32;10.50;;;;;;;;;;5007261;28;20036;-69
2023/10/24 06:04:01;;;;;;;16.60;12.85;;;;;;;;;;5008630;28;20107;-69
2023/10/24 06:06:27;;;;;;;16.10;12.10;;;;;;;;;;5008199;28;20038;-69
2023/10/24 06:08:53;;;;;;;17.15;12.10;;;;;;;;;;5023296;28;21095;-69
2023/10/24 06:11:19;;;;;;;16.08;10.85;;;;;;;;;;5007495;28;20099;-69
2023/10/24 06:13:45;;;;;;;15.70;11.95;;;;;;;;;;5008299;28;20072;-69
2023/10/24 06:16:12;;;;;;;14.20;11.45;;;;;;;;;;5007892;28;20029;-69
2023/10/24 06:18:38;;;;;;;18.13;12.68;;;;;;;;;;5008599;28;20149;-69
2023/10/24 06:21:08;;;;;;;14.73;11.00;;;;;;;;;;5010732;28;20391;-69
2023/10/24 06:23:35;;;;;;;16.10;11.05;;;;;;;;;;5012667;28;20029;-69
2023/10/24 06:26:01;;;;;;;18.55;11.15;;;;;;;;;;5011884;28;20061;-69
2023/10/24 06:28:27;;;;;;;11.95;9.38;;;;;;;;;;5012007;28;20402;-68
2023/10/24 06:30:58;;;;;;;15.90;10.93;;;;;;;;;;5011195;28;20107;-69
2023/10/24 06:33:25;;;;;;;13.07;9.30;;;;;;;;;;5011218;28;20025;-68
2023/10/24 06:35:51;;;;;;;11.15;9.55;;;;;;;;;;5010562;28;20033;-69
2023/10/24 06:38:17;;;;;;;24.42;9.95;;;;;;;;;;5011307;28;20400;-68
2023/10/24 06:40:46;;;;;;;12.07;9.40;;;;;;;;;;5011569;28;20594;-69
2023/10/24 06:43:13;;;;;;;12.68;8.50;;;;;;;;;;5011130;28;20057;-69
2023/10/24 06:45:39;;;;;;;10.50;8.48;;;;;;;;;;5009495;28;20033;-69
2023/10/24 06:48:06;;;;;;;15.60;8.63;;;;;;;;;;5011383;28;20039;-70
2023/10/24 06:50:33;;;;;;;11.75;8.73;;;;;;;;;;5010369;28;20172;-69
2023/10/24 06:52:59;;;;;;;13.80;9.38;;;;;;;;;;5010270;28;20389;-68
2023/10/24 06:55:25;;;;;;;11.98;9.13;;;;;;;;;;5009277;28;20113;-68
2023/10/24 06:57:51;;;;;;;13.77;9.23;;;;;;;;;;5011362;28;20042;-69
2023/10/24 07:00:18;;;;;;;11.82;8.82;;;;;;;;;;5010982;28;20183;-69
2023/10/24 07:02:44;;;;;;;13.25;9.35;;;;;;;;;;5010963;28;20905;-68
2023/10/24 07:05:10;;;;;;;11.48;8.32;;;;;;;;;;5011570;28;20527;-69
2023/10/24 07:07:38;;;;;;;11.05;8.27;;;;;;;;;;5010987;28;20030;-68
2023/10/24 07:10:04;;;;;;;16.23;10.90;;;;;;;;;;5011363;28;20025;-69
2023/10/24 07:12:30;;;;;;;16.67;11.85;;;;;;;;;;5011058;28;21723;-69
2023/10/24 07:14:58;;;;;;;16.30;10.65;;;;;;;;;;5011214;28;20824;-69
2023/10/24 07:17:24;;;;;;;12.57;9.55;;;;;;;;;;5010635;28;20061;-69
2023/10/24 07:19:50;;;;;;;12.25;8.95;;;;;;;;;;5010808;28;20546;-69
2023/10/24 07:22:17;;;;;;;11.63;8.00;;;;;;;;;;5011320;28;20037;-68
2023/10/24 07:24:43;;;;;;;11.75;7.47;;;;;;;;;;5010759;28;20040;-68
2023/10/24 07:27:10;;;;;;;11.43;7.97;;;;;;;;;;5011767;28;20030;-68
2023/10/24 07:29:36;;;;;;;13.88;8.10;;;;;;;;;;5010878;28;20144;-68
2023/10/24 07:32:02;;;;;;;12.88;8.20;;;;;;;;;;5011061;28;20037;-69
2023/10/24 07:34:32;;;;;;;10.88;7.63;;;;;;;;;;5009127;28;20111;-68
2023/10/24 07:36:59;;;;;;;14.57;7.97;;;;;;;;;;5010607;28;20068;-68
2023/10/24 07:39:25;;;;;;;13.02;8.77;;;;;;;;;;5011095;28;20861;-68
2023/10/24 07:41:51;;;;;;;13.40;8.43;;;;;;;;;;5011152;28;20730;-68
2023/10/24 07:44:17;;;;;;;13.15;8.43;;;;;;;;;;5010937;28;20575;-69
2023/10/24 07:46:43;;;;;;;15.13;8.43;;;;;;;;;;5010716;28;20128;-69
2023/10/24 07:49:10;;;;;;;10.77;7.47;;;;;;;;;;5010511;28;20388;-68
2023/10/24 07:51:36;;;;;;;12.13;7.68;;;;;;;;;;5011214;28;20037;-68
2023/10/24 07:54:02;;;;;;;10.90;7.95;;;;;;;;;;5010843;28;20111;-69
2023/10/24 07:56:28;;;;;;;12.13;7.90;;;;;;;;;;5010999;28;20110;-68
2023/10/24 07:58:54;;;;;;;17.85;9.00;;;;;;;;;;5010943;28;20580;-68
2023/10/24 08:01:20;;;;;;;11.38;8.20;;;;;;;;;;5010052;28;20065;-68
2023/10/24 08:03:46;;;;;;;13.38;7.88;;;;;;;;;;5011022;28;20042;-68
2023/10/24 08:06:12;;;;;;;11.60;7.88;;;;;;;;;;5009915;28;20033;-68
2023/10/24 08:08:43;;;;;;;13.00;8.05;;;;;;;;;;5010332;28;20072;-69
2023/10/24 08:11:10;;;;;;;13.35;8.60;;;;;;;;;;5009809;28;20037;-68
2023/10/24 08:13:36;;;;;;;14.68;7.70;;;;;;;;;;5010271;28;20036;-69
2023/10/24 08:16:02;;;;;;;13.70;8.63;;;;;;;;;;5010024;28;20029;-68
2023/10/24 08:18:28;;;;;;;14.18;9.05;;;;;;;;;;5009816;28;20030;-68
2023/10/24 08:20:54;;;;;;;13.43;7.90;;;;;;;;;;5010364;28;20037;-68
2023/10/24 08:23:21;;;;;;;16.15;9.20;;;;;;;;;;5009633;28;20029;-68
2023/10/24 08:25:47;;;;;;;12.27;8.30;;;;;;;;;;5008652;28;20029;-69
2023/10/24 08:28:13;;;;;;;11.80;8.13;;;;;;;;;;5005159;28;20061;-69
2023/10/24 08:30:39;;;;;;;13.35;9.02;;;;;;;;;;5008354;28;20116;-69
2023/10/24 08:33:05;;;;;;;12.35;8.45;;;;;;;;;;5007812;28;20064;-69
2023/10/24 08:35:31;;;;;;;12.20;8.50;;;;;;;;;;5006798;28;20488;-68
2023/10/24 08:37:57;;;;;;;14.57;9.55;;;;;;;;;;5008007;28;20562;-68
2023/10/24 08:40:23;;;;;;;14.60;9.30;;;;;;;;;;5007769;28;21789;-68
2023/10/24 08:42:50;;;;;;;13.73;9.15;;;;;;;;;;5007235;28;20029;-69
2023/10/24 08:45:19;;;;;;;12.93;9.63;;;;;;;;;;5008951;28;20053;-68
2023/10/24 08:47:49;;;;;;;16.50;10.00;;;;;;;;;;5006969;28;20053;-68
2023/10/24 08:50:15;;;;;;;14.95;9.52;;;;;;;;;;5008639;28;20040;-68
2023/10/24 08:52:42;;;;;;;17.58;10.82;;;;;;;;;;5008974;28;20552;-68
2023/10/24 08:55:08;;;;;;;13.45;9.20;;;;;;;;;;5009154;28;20029;-68
2023/10/24 08:57:40;;;;;;;17.17;9.32;;;;;;;;;;5008465;28;20061;-69
2023/10/24 09:00:08;;;;;;;14.07;9.57;;;;;;;;;;5008538;28;20033;-68
2023/10/24 09:02:35;;;;;;;15.95;10.00;;;;;;;;;;5008265;28;20036;-68
2023/10/24 09:05:01;;;;;;;18.83;10.48;;;;;;;;;;5008319;28;20607;-68
2023/10/24 09:07:28;;;;;;;14.38;9.20;;;;;;;;;;5007976;28;20037;-68
2023/10/24 09:09:54;;;;;;;15.07;9.85;;;;;;;;;;5008038;28;20045;-68
2023/10/24 09:12:21;;;;;;;12.55;9.50;;;;;;;;;;5000468;28;20064;-68
2023/10/24 09:14:48;;;;;;;15.13;10.70;;;;;;;;;;4996342;28;20030;-68
2023/10/24 09:17:15;;;;;;;17.45;9.60;;;;;;;;;;4994689;28;20157;-68
2023/10/24 09:19:41;;;;;;;14.55;9.73;;;;;;;;;;4996189;28;20083;-68
2023/10/24 09:22:07;;;;;;;16.85;10.77;;;;;;;;;;4996897;28;20115;-68
2023/10/24 09:24:36;;;;;;;16.20;10.27;;;;;;;;;;4996602;28;20103;-68
2023/10/24 09:27:02;;;;;;;15.30;10.48;;;;;;;;;;4997783;28;20044;-68
2023/10/24 09:29:29;;;;;;;20.30;10.50;;;;;;;;;;4997695;28;20030;-68
2023/10/24 09:31:58;;;;;;;15.60;10.05;;;;;;;;;;4997619;28;20092;-69
2023/10/24 09:34:24;;;;;;;13.80;9.57;;;;;;;;;;4997453;28;20048;-68
2023/10/24 09:36:50;;;;;;;13.90;9.63;;;;;;;;;;4997657;28;20085;-68
2023/10/24 09:39:17;;;;;;;13.85;9.13;;;;;;;;;;4998169;28;20514;-68
2023/10/24 09:41:44;;;;;;;14.27;9.77;;;;;;;;;;4998175;28;21743;-68
2023/10/24 09:44:10;;;;;;;15.10;9.73;;;;;;;;;;4997960;28;20040;-68
2023/10/24 09:46:37;;;;;;;13.98;9.98;;;;;;;;;;4997848;28;20030;-68
2023/10/24 09:49:04;;;;;;;16.70;10.50;;;;;;;;;;4996679;28;20049;-68
2023/10/24 09:51:31;;;;;;;13.48;10.15;;;;;;;;;;4993180;28;20038;-68
2023/10/24 09:53:58;;;;;;;14.27;10.00;;;;;;;;;;5000198;28;20061;-69
2023/10/24 09:56:24;;;;;;;15.43;9.80;;;;;;;;;;5000867;28;20077;-68
2023/10/24 09:58:51;;;;;;;19.90;11.02;;;;;;;;;;5001645;28;20165;-68
2023/10/24 10:01:17;;;;;;;16.75;10.52;;;;;;;;;;5000961;28;20924;-68
2023/10/24 10:03:44;;;;;;;15.73;10.10;;;;;;;;;;5001000;28;20033;-68
2023/10/24 10:06:11;;;;;;;19.70;11.38;;;;;;;;;;5000905;28;20041;-68
2023/10/24 10:08:38;;;;;;;16.20;10.48;;;;;;;;;;5001265;28;20065;-68
2023/10/24 10:11:05;;;;;;;17.23;10.82;;;;;;;;;;5001125;28;20033;-68
2023/10/24 10:13:34;;;;;;;14.77;10.18;;;;;;;;;;4997878;28;20068;-68
2023/10/24 10:16:04;;;;;;;13.88;9.60;;;;;;;;;;4998494;28;20072;-68
2023/10/24 10:18:40;;;;;;;14.77;9.98;;;;;;;;;;4999383;28;20030;-68
2023/10/24 10:21:18;;;;;;;15.25;9.90;;;;;;;;;;4999638;28;20099;-68
2023/10/24 10:23:50;;;;;;;13.50;10.32;;;;;;;;;;4998986;28;20060;-68
2023/10/24 10:26:16;;;;;;;13.68;9.90;;;;;;;;;;5001145;28;20080;-68
2023/10/24 10:28:57;;;;;;;15.82;10.68;;;;;;;;;;5000586;28;20036;-68
2023/10/24 10:31:48;;;;;;;14.98;10.55;;;;;;;;;;5000990;28;20062;-69
2023/10/24 10:34:14;;;;;;;17.60;10.10;;;;;;;;;;5000974;28;20123;-68
2023/10/24 10:36:52;;;;;;;15.45;9.50;;;;;;;;;;5001169;28;20038;-69
2023/10/24 10:39:18;;;;;;;15.82;10.23;;;;;;;;;;5000333;28;20060;-68
2023/10/24 10:41:45;;;;;;;18.30;10.68;;;;;;;;;;4998853;28;20204;-68
2023/10/24 10:44:30;;;;;;;14.25;9.98;;;;;;;;;;5017166;28;20030;-68
2023/10/24 10:46:59;;;;;;;15.98;10.38;;;;;;;;;;5000461;28;20038;-68
2023/10/24 10:49:26;;;;;;;14.73;9.73;;;;;;;;;;5000547;28;20075;-68
2023/10/24 10:51:54;;;;;;;14.30;10.43;;;;;;;;;;5000412;28;20025;-68
2023/10/24 10:54:38;;;;;;;18.20;10.52;;;;;;;;;;5000100;28;20033;-68
2023/10/24 10:57:04;;;;;;;14.43;9.95;;;;;;;;;;4999088;28;20176;-69
2023/10/24 10:59:31;;;;;;;17.38;10.68;;;;;;;;;;4999690;28;20033;-68
2023/10/24 11:01:57;;;;;;;16.45;11.00;;;;;;;;;;4998962;28;20350;-68
2023/10/24 11:04:23;;;;;;;14.85;10.63;;;;;;;;;;4997341;28;20030;-68
2023/10/24 11:06:53;;;;;;;13.55;10.07;;;;;;;;;;4998208;28;20041;-68
2023/10/24 11:09:20;;;;;;;15.73;11.68;;;;;;;;;;4999552;28;20121;-68
2023/10/24 11:11:46;;;;;;;17.70;12.10;;;;;;;;;;4998827;28;20033;-68
2023/10/24 11:14:20;;;;;;;13.32;9.70;;;;;;;;;;4999107;28;20029;-68
2023/10/24 11:16:46;;;;;;;;;;;;;;;;;;5000244;28;20073;-68
2023/10/24 11:19:21;;;;;;;14.63;10.13;;;;;;;;;;4999520;28;19927;-68
2023/10/24 11:21:48;;;;;;;15.02;10.35;;;;;;;;;;4999943;28;20069;-68
2023/10/24 11:24:20;;;;;;;18.38;11.07;;;;;;;;;;4994765;28;20545;-68
2023/10/24 11:26:46;;;;;;;14.40;10.77;;;;;;;;;;5014044;28;20092;-68
2023/10/24 11:29:15;;;;;;;17.50;11.50;;;;;;;;;;4999814;28;20037;-68
2023/10/24 11:31:47;;;;;;;14.77;10.65;;;;;;;;;;4999639;28;20029;-68
2023/10/24 11:34:13;;;;;;;16.30;11.27;;;;;;;;;;4999305;28;20033;-68
2023/10/24 11:36:43;;;;;;;16.65;11.40;;;;;;;;;;4998847;28;20164;-68
2023/10/24 11:39:09;;;;;;;15.88;11.25;;;;;;;;;;4999729;28;20030;-68
2023/10/24 11:41:36;;;;;;;16.73;12.45;;;;;;;;;;4998402;28;20107;-68
2023/10/24 11:44:02;;;;;;;16.52;10.90;;;;;;;;;;4999227;28;20030;-68
2023/10/24 11:46:28;;;;;;;16.95;11.68;;;;;;;;;;4999531;28;20156;-68
2023/10/24 11:48:54;;;;;;;14.48;11.43;;;;;;;;;;4999295;28;20043;-69
2023/10/24 11:51:20;;;;;;;15.32;11.50;;;;;;;;;;4997900;28;20385;-68
2023/10/24 11:53:47;;;;;;;15.57;11.98;;;;;;;;;;4999639;28;20398;-68
2023/10/24 11:56:13;;;;;;;17.98;11.68;;;;;;;;;;4998579;28;20050;-68
2023/10/24 11:58:42;;;;;;;15.90;11.45;;;;;;;;;;4998578;28;20029;-68
2023/10/24 12:01:08;;;;;;;14.68;11.13;;;;;;;;;;4998460;28;20033;-68
2023/10/24 12:03:47;;;;;;;14.40;10.68;;;;;;;;;;4998845;28;20100;-68
2023/10/24 12:06:20;;;;;;;16.70;11.00;;;;;;;;;;4997911;28;20025;-68
2023/10/24 12:08:47;;;;;;;15.15;10.93;;;;;;;;;;4998876;28;20037;-67
2023/10/24 12:11:13;;;;;;;17.35;10.73;;;;;;;;;;4998435;28;20141;-68
2023/10/24 12:13:40;;;;;;;14.45;11.05;;;;;;;;;;4999707;28;20542;-68
2023/10/24 12:16:07;;;;;;;16.25;10.52;;;;;;;;;;4997372;28;20071;-68
2023/10/24 12:18:33;;;;;;;13.90;10.70;;;;;;;;;;4997707;28;20515;-68
2023/10/24 12:20:59;;;;;;;17.05;11.00;;;;;;;;;;4997589;28;20389;-68
2023/10/24 12:23:26;;;;;;;13.30;10.38;;;;;;;;;;4997897;28;20500;-68
2023/10/24 12:25:55;;;;;;;15.70;10.98;;;;;;;;;;4997879;28;20045;-68
2023/10/24 12:28:21;;;;;;;14.18;10.85;;;;;;;;;;4998000;28;20079;-68
2023/10/24 12:30:47;;;;;;;14.00;9.55;;;;;;;;;;4997257;28;20028;-68
2023/10/24 12:33:13;;;;;;;14.40;10.40;;;;;;;;;;4997673;28;20088;-68
2023/10/24 12:35:39;;;;;;;14.23;9.88;;;;;;;;;;4998131;28;20044;-68
2023/10/24 12:38:05;;;;;;;12.95;10.07;;;;;;;;;;4996466;28;20162;-68
2023/10/24 12:40:32;;;;;;;15.27;11.45;;;;;;;;;;4997306;28;20033;-68
2023/10/24 12:42:58;;;;;;;13.55;10.77;;;;;;;;;;4997518;28;20041;-68
2023/10/24 12:45:24;;;;;;;13.02;10.18;;;;;;;;;;4997516;28;21711;-68
2023/10/24 12:47:51;;;;;;;11.98;9.10;;;;;;;;;;4996710;28;20119;-68
2023/10/24 12:50:17;;;;;;;12.23;9.80;;;;;;;;;;4997566;28;20074;-68
2023/10/24 12:52:44;;;;;;;15.80;10.48;;;;;;;;;;4996903;28;20095;-68
2023/10/24 12:55:10;;;;;;;13.70;9.30;;;;;;;;;;4997841;28;20446;-68
2023/10/24 12:57:36;;;;;;;12.68;9.48;;;;;;;;;;4996751;28;20505;-68
2023/10/24 13:00:03;;;;;;;13.90;9.68;;;;;;;;;;4996929;28;20860;-68
2023/10/24 13:02:30;;;;;;;13.60;10.55;;;;;;;;;;4997436;28;20567;-68
2023/10/24 13:04:56;;;;;;;11.43;8.40;;;;;;;;;;4997326;28;20056;-68
2023/10/24 13:07:22;;;;;;;10.98;8.95;;;;;;;;;;4996961;28;20061;-68
2023/10/24 13:09:48;;;;;;;11.82;9.43;;;;;;;;;;4996302;28;20184;-68
2023/10/24 13:12:14;;;;;;;11.18;8.88;;;;;;;;;;4996854;28;20049;-68
2023/10/24 13:14:40;;;;;;;11.43;8.05;;;;;;;;;;4996389;28;20529;-68
2023/10/24 13:17:06;;;;;;;12.63;8.80;;;;;;;;;;4995158;28;20145;-68
2023/10/24 13:19:32;;;;;;;14.57;9.70;;;;;;;;;;4994992;28;20033;-68
2023/10/24 13:21:59;;;;;;;13.10;8.75;;;;;;;;;;4995599;28;20068;-68
2023/10/24 13:24:25;;;;;;;14.00;9.23;;;;;;;;;;4996320;28;20489;-68
2023/10/24 13:26:51;;;;;;;11.30;9.43;;;;;;;;;;4995293;28;20037;-68
2023/10/24 13:29:20;;;;;;;12.48;9.65;;;;;;;;;;5000722;28;20033;-68
2023/10/24 13:31:48;;;;;;;13.77;9.98;;;;;;;;;;5001587;28;20029;-68
2023/10/24 13:34:14;;;;;;;14.80;10.02;;;;;;;;;;5001154;28;20029;-68
2023/10/24 13:36:41;;;;;;;15.07;9.95;;;;;;;;;;5001793;28;20044;-68
2023/10/24 13:39:07;;;;;;;13.98;10.15;;;;;;;;;;5000555;28;20052;-68
2023/10/24 13:41:33;;;;;;;16.38;10.50;;;;;;;;;;4999945;28;20029;-68
2023/10/24 13:44:00;;;;;;;14.10;9.00;;;;;;;;;;5000205;28;20037;-68
2023/10/24 13:46:26;;;;;;;15.20;10.07;;;;;;;;;;4998403;28;20471;-68
2023/10/24 13:48:53;;;;;;;18.70;10.55;;;;;;;;;;4999296;28;21525;-68
2023/10/24 13:51:20;;;;;;;13.07;10.48;;;;;;;;;;5000616;28;20167;-68
2023/10/24 13:53:46;;;;;;;13.52;9.77;;;;;;;;;;5001180;28;20033;-68
2023/10/24 13:56:12;;;;;;;14.02;10.20;;;;;;;;;;5000854;28;20054;-68
2023/10/24 13:58:38;;;;;;;14.57;9.57;;;;;;;;;;5000571;28;20044;-68
2023/10/24 14:01:04;;;;;;;12.88;8.57;;;;;;;;;;5000390;28;20033;-68
2023/10/24 14:03:30;;;;;;;13.80;9.25;;;;;;;;;;5001125;28;20034;-68
2023/10/24 14:05:57;;;;;;;11.30;8.85;;;;;;;;;;5001455;28;20048;-68
2023/10/24 14:08:23;;;;;;;13.25;9.02;;;;;;;;;;5000461;28;20041;-68
2023/10/24 14:10:50;;;;;;;13.75;8.98;;;;;;;;;;5000275;28;20048;-68
2023/10/24 14:13:16;;;;;;;12.82;8.23;;;;;;;;;;4998942;28;20148;-68
2023/10/24 14:15:42;;;;;;;12.98;8.15;;;;;;;;;;4999231;28;20042;-68
2023/10/24 14:18:09;;;;;;;12.40;7.43;;;;;;;;;;4999380;28;21052;-68
2023/10/24 14:20:35;;;;;;;8.77;7.22;;;;;;;;;;4997405;28;20108;-68